Time;durP1;ratioP1;P1;durP2;ratioP2;P2;SDS_P1;SDS_P2;PMS_P1;PMS_P2;Temp;Humidity;BMP_temperature;BMP_pressure;BME280_temperature;BME280_humidity;BME280_pressure;Samples;Min_cycle;Max_cycle;Signal;HPM_P1;HPM_P2
2021/08/06 00:02:00;;;;;;;1.50;0.90;;;19.60;98.20;;;;;;5008218;28;20494;-78
2021/08/06 00:04:27;;;;;;;1.50;0.90;;;19.60;98.20;;;;;;5016769;28;20469;-81
2021/08/06 00:06:53;;;;;;;1.50;0.90;;;19.50;98.20;;;;;;5013557;28;20982;-82
2021/08/06 00:09:21;;;;;;;1.50;1.00;;;19.50;98.20;;;;;;5019851;28;20472;-80
2021/08/06 00:11:48;;;;;;;1.50;1.00;;;19.50;98.20;;;;;;5015270;28;20493;-81
2021/08/06 00:14:15;;;;;;;1.60;1.30;;;19.50;98.20;;;;;;5022234;28;20916;-78
2021/08/06 00:16:42;;;;;;;1.50;0.90;;;19.50;98.20;;;;;;5016356;28;20478;-81
2021/08/06 00:19:09;;;;;;;1.50;0.90;;;19.50;98.20;;;;;;5021363;28;20472;-82
2021/08/06 00:21:35;;;;;;;1.50;0.90;;;19.50;98.20;;;;;;5011831;28;20984;-79
2021/08/06 00:24:02;;;;;;;1.50;0.90;;;19.60;98.20;;;;;;5023463;28;20464;-80
2021/08/06 00:26:30;;;;;;;1.50;0.90;;;19.60;98.20;;;;;;5009214;28;20482;-81
2021/08/06 00:28:57;;;;;;;1.50;0.90;;;19.60;98.20;;;;;;5024672;28;20467;-79
2021/08/06 00:31:24;;;;;;;1.50;0.90;;;19.60;98.20;;;;;;5007814;28;20997;-80
2021/08/06 00:33:50;;;;;;;1.50;0.93;;;19.60;98.20;;;;;;5022736;28;20464;-80
2021/08/06 00:36:17;;;;;;;1.50;0.90;;;19.60;98.20;;;;;;5007981;28;20896;-81
2021/08/06 00:38:44;;;;;;;1.50;0.90;;;19.60;98.20;;;;;;5023931;28;20460;-80
2021/08/06 00:41:10;;;;;;;1.50;1.00;;;19.60;98.20;;;;;;5005322;28;20485;-81
2021/08/06 00:43:39;;;;;;;1.50;0.97;;;19.60;98.20;;;;;;5026087;28;20460;-80
2021/08/06 00:46:06;;;;;;;1.50;0.90;;;19.60;98.20;;;;;;5004773;28;20491;-79
2021/08/06 00:48:33;;;;;;;1.50;0.90;;;19.50;98.20;;;;;;5031596;28;20460;-81
2021/08/06 00:51:01;;;;;;;1.50;0.90;;;19.50;98.20;;;;;;5003029;28;20459;-81
2021/08/06 00:53:28;;;;;;;1.50;0.90;;;19.50;98.20;;;;;;5025699;28;20460;-79
2021/08/06 00:55:54;;;;;;;2.13;1.93;;;19.50;98.20;;;;;;5002872;28;20484;-81
2021/08/06 00:58:21;;;;;;;1.50;0.93;;;19.50;98.20;;;;;;5025947;28;20465;-81
2021/08/06 01:00:52;;;;;;;1.50;0.90;;;19.50;98.20;;;;;;5006141;28;20474;-77
2021/08/06 01:03:25;;;;;;;1.50;0.90;;;19.50;98.20;;;;;;5025155;28;20475;-82
2021/08/06 01:06:07;;;;;;;1.50;0.90;;;19.50;98.20;;;;;;4996869;28;20491;-79
2021/08/06 01:08:41;;;;;;;1.50;0.93;;;19.50;98.20;;;;;;5023610;28;21384;-78
2021/08/06 01:11:09;;;;;;;1.50;0.90;;;19.50;98.20;;;;;;5005435;28;20495;-81
2021/08/06 01:13:42;;;;;;;1.50;1.00;;;19.50;98.20;;;;;;5028126;28;20460;-80
2021/08/06 01:16:12;;;;;;;1.60;1.40;;;19.60;98.20;;;;;;5005458;28;20494;-81
2021/08/06 01:18:44;;;;;;;1.50;0.90;;;19.60;98.20;;;;;;5024822;28;20464;-81
2021/08/06 01:21:15;;;;;;;1.50;0.90;;;19.60;98.20;;;;;;5006038;28;20481;-80
2021/08/06 01:23:42;;;;;;;1.50;0.90;;;19.60;98.20;;;;;;5026438;28;20460;-79
2021/08/06 01:26:13;;;;;;;1.50;0.90;;;19.60;98.20;;;;;;5003560;28;20491;-78
2021/08/06 01:28:42;;;;;;;1.50;0.90;;;19.60;98.20;;;;;;5023730;28;20575;-79
2021/08/06 01:31:09;;;;;;;1.50;0.90;;;19.50;98.20;;;;;;5005190;28;20486;-80
2021/08/06 01:33:36;;;;;;;1.50;1.00;;;19.50;98.20;;;;;;5025604;28;20471;-81
2021/08/06 01:36:04;;;;;;;1.50;0.97;;;19.50;98.20;;;;;;5001838;28;20476;-79
2021/08/06 01:38:31;;;;;;;1.50;0.90;;;19.50;98.20;;;;;;5025717;28;20460;-78
2021/08/06 01:41:16;;;;;;;1.50;1.00;;;19.50;98.20;;;;;;5000912;28;20944;-80
2021/08/06 01:43:52;;;;;;;1.50;0.90;;;19.40;98.20;;;;;;5022165;28;20456;-81
2021/08/06 01:46:26;;;;;;;1.50;0.90;;;19.40;98.20;;;;;;5002815;28;20486;-81
2021/08/06 01:49:09;;;;;;;1.50;0.90;;;19.40;98.20;;;;;;5025015;28;20459;-80
2021/08/06 01:51:39;;;;;;;1.50;0.90;;;19.40;98.20;;;;;;4999712;28;20497;-79
2021/08/06 01:54:07;;;;;;;1.50;1.00;;;19.40;98.20;;;;;;5015719;28;20456;-79
2021/08/06 01:56:37;;;;;;;1.50;0.90;;;19.50;98.20;;;;;;5005959;28;20490;-80
2021/08/06 01:59:04;;;;;;;1.50;0.90;;;19.50;98.20;;;;;;5020571;28;20460;-79
2021/08/06 02:01:31;;;;;;;1.50;0.90;;;19.50;98.20;;;;;;5001286;28;20479;-79
2021/08/06 02:03:58;;;;;;;1.50;0.90;;;19.50;98.20;;;;;;5021116;28;20466;-79
2021/08/06 02:06:25;;;;;;;1.50;0.97;;;19.50;98.20;;;;;;5007304;28;20475;-81
2021/08/06 02:08:52;;;;;;;1.50;0.90;;;19.50;98.20;;;;;;5030002;28;20460;-80
2021/08/06 02:11:20;;;;;;;1.50;0.90;;;19.50;98.20;;;;;;5010961;28;20479;-80
2021/08/06 02:13:50;;;;;;;1.50;0.90;;;19.50;98.20;;;;;;5026442;28;20464;-78
2021/08/06 02:16:18;;;;;;;1.50;0.90;;;19.50;98.20;;;;;;5005134;28;20792;-81
2021/08/06 02:18:48;;;;;;;1.50;0.90;;;19.50;98.20;;;;;;5028811;28;20467;-81
2021/08/06 02:21:26;;;;;;;1.50;0.90;;;19.50;98.20;;;;;;5009153;28;20483;-79
2021/08/06 02:23:58;;;;;;;1.50;0.90;;;19.50;98.20;;;;;;5027846;28;20452;-79
2021/08/06 02:26:26;;;;;;;1.50;0.90;;;19.50;98.20;;;;;;5008424;28;20480;-79
2021/08/06 02:28:54;;;;;;;1.50;1.10;;;19.50;98.20;;;;;;5025713;28;20460;-78
2021/08/06 02:31:21;;;;;;;1.50;0.93;;;19.50;98.20;;;;;;5006028;28;20485;-81
2021/08/06 02:33:49;;;;;;;1.50;0.90;;;19.50;98.20;;;;;;5022979;28;20460;-78
2021/08/06 02:36:16;;;;;;;1.50;0.90;;;19.40;98.20;;;;;;5011722;28;20470;-79
2021/08/06 02:38:42;;;;;;;1.50;0.90;;;19.40;98.20;;;;;;5021405;28;20466;-79
2021/08/06 02:41:09;;;;;;;1.50;1.00;;;19.30;98.20;;;;;;5008593;28;21024;-79
2021/08/06 02:43:38;;;;;;;1.50;1.00;;;19.20;98.20;;;;;;5026542;28;20860;-81
2021/08/06 02:46:07;;;;;;;1.50;0.90;;;19.20;98.20;;;;;;5005658;28;20850;-81
2021/08/06 02:48:33;;;;;;;1.50;0.90;;;19.10;98.20;;;;;;5026096;28;20464;-80
2021/08/06 02:51:00;;;;;;;1.50;1.00;;;19.10;98.20;;;;;;5003835;28;20455;-79
2021/08/06 02:53:27;;;;;;;1.50;1.00;;;19.00;98.20;;;;;;5027513;28;20464;-80
2021/08/06 02:55:54;;;;;;;1.50;0.90;;;18.90;98.20;;;;;;5004249;28;20491;-81
2021/08/06 02:58:20;;;;;;;1.50;0.90;;;18.90;98.20;;;;;;5028238;28;20472;-81
2021/08/06 03:00:48;;;;;;;1.50;0.97;;;18.90;98.20;;;;;;5014162;28;20693;-80
2021/08/06 03:03:16;;;;;;;1.50;1.00;;;18.80;98.20;;;;;;5030885;28;20974;-80
2021/08/06 03:05:43;;;;;;;1.50;0.93;;;18.80;98.20;;;;;;5010494;28;21120;-82
2021/08/06 03:08:09;;;;;;;1.50;1.00;;;18.70;98.20;;;;;;5017677;28;20854;-80
2021/08/06 03:10:37;;;;;;;1.50;0.93;;;18.60;98.20;;;;;;5016642;28;20468;-83
2021/08/06 03:13:04;;;;;;;1.60;1.20;;;18.60;98.20;;;;;;5016804;28;20549;-82
2021/08/06 03:15:30;;;;;;;1.50;1.00;;;18.60;98.20;;;;;;5019544;28;20475;-80
2021/08/06 03:17:57;;;;;;;1.50;1.00;;;18.50;98.20;;;;;;5024841;28;20483;-82
2021/08/06 03:20:25;;;;;;;1.50;0.90;;;18.50;98.20;;;;;;5012621;28;20464;-81
2021/08/06 03:22:53;;;;;;;1.50;0.90;;;18.50;98.20;;;;;;5022403;28;21024;-81
2021/08/06 03:25:19;;;;;;;1.50;1.00;;;18.40;98.20;;;;;;5014311;28;20472;-81
2021/08/06 03:27:46;;;;;;;2.07;1.20;;;18.40;98.20;;;;;;5022717;28;20471;-80
2021/08/06 03:30:15;;;;;;;1.50;0.90;;;18.40;98.20;;;;;;5016748;28;20782;-80
2021/08/06 03:32:42;;;;;;;1.50;1.00;;;18.40;98.20;;;;;;5023590;28;20590;-81
2021/08/06 03:35:11;;;;;;;1.50;0.90;;;18.40;98.20;;;;;;5015139;28;20467;-82
2021/08/06 03:37:39;;;;;;;1.50;1.00;;;18.30;98.20;;;;;;5014550;28;20997;-81
2021/08/06 03:40:07;;;;;;;1.50;1.00;;;18.30;98.20;;;;;;5014226;28;20472;-81
2021/08/06 03:42:33;;;;;;;1.50;0.90;;;18.30;98.20;;;;;;5022612;28;20495;-80
2021/08/06 03:45:00;;;;;;;1.50;0.90;;;18.30;98.20;;;;;;5016065;28;20471;-82
2021/08/06 03:47:27;;;;;;;1.50;1.00;;;18.30;98.20;;;;;;5020206;28;20486;-81
2021/08/06 03:49:53;;;;;;;1.50;1.00;;;18.30;98.20;;;;;;5020802;28;20468;-80
2021/08/06 03:52:20;;;;;;;1.50;1.00;;;18.30;98.20;;;;;;5017149;28;20482;-81
2021/08/06 03:54:48;;;;;;;1.50;0.90;;;18.30;98.20;;;;;;5023800;28;20467;-79
2021/08/06 03:57:15;;;;;;;1.50;1.00;;;18.30;98.20;;;;;;5016301;28;20487;-81
2021/08/06 03:59:42;;;;;;;1.50;1.00;;;18.30;98.20;;;;;;5024248;28;20471;-79
2021/08/06 04:02:08;;;;;;;1.50;1.00;;;18.30;98.20;;;;;;5013894;28;20479;-80
2021/08/06 04:04:35;;;;;;;1.50;1.00;;;18.30;98.20;;;;;;5019039;28;20491;-80
2021/08/06 04:07:02;;;;;;;1.50;0.90;;;18.30;98.20;;;;;;5012909;28;20483;-80
2021/08/06 04:09:29;;;;;;;1.50;1.00;;;18.30;98.20;;;;;;5018366;28;20471;-81
2021/08/06 04:11:57;;;;;;;1.50;1.00;;;18.30;98.20;;;;;;5012965;28;20481;-80
2021/08/06 04:14:23;;;;;;;1.50;1.00;;;18.30;98.20;;;;;;5017855;28;20520;-78
2021/08/06 04:16:50;;;;;;;1.50;1.00;;;18.30;98.20;;;;;;5012761;28;20491;-80
2021/08/06 04:19:17;;;;;;;1.50;1.00;;;18.20;98.20;;;;;;5022314;28;20460;-79
2021/08/06 04:21:43;;;;;;;1.50;0.90;;;18.20;98.20;;;;;;5015440;28;20516;-81
2021/08/06 04:24:10;;;;;;;1.50;1.00;;;18.20;98.20;;;;;;5020933;28;20463;-82
2021/08/06 04:26:37;;;;;;;1.50;0.90;;;18.20;98.20;;;;;;5013532;28;20490;-81
2021/08/06 04:29:05;;;;;;;1.50;0.97;;;18.30;98.20;;;;;;5021910;28;20464;-79
2021/08/06 04:31:32;;;;;;;1.50;1.00;;;18.30;98.20;;;;;;5006014;28;20489;-79
2021/08/06 04:33:58;;;;;;;1.50;0.90;;;18.30;98.20;;;;;;5023402;28;20460;-81
2021/08/06 04:36:25;;;;;;;1.50;0.97;;;18.30;98.20;;;;;;5009180;28;20479;-81
2021/08/06 04:38:52;;;;;;;1.50;0.90;;;18.30;98.20;;;;;;5024594;28;20460;-80
2021/08/06 04:41:19;;;;;;;1.50;0.93;;;18.30;98.20;;;;;;5010745;28;20554;-80
2021/08/06 04:43:45;;;;;;;1.50;0.90;;;18.30;98.20;;;;;;5026034;28;20487;-82
2021/08/06 04:46:13;;;;;;;1.50;0.97;;;18.30;98.20;;;;;;5007275;28;20494;-81
2021/08/06 04:48:40;;;;;;;1.50;0.93;;;18.30;98.20;;;;;;5025054;28;20486;-80
2021/08/06 04:51:07;;;;;;;1.50;0.93;;;18.30;98.20;;;;;;5005271;28;20483;-81
2021/08/06 04:53:34;;;;;;;1.57;1.10;;;18.30;98.20;;;;;;5030223;28;20467;-82
2021/08/06 04:56:01;;;;;;;1.50;0.90;;;18.30;98.20;;;;;;5006118;28;20479;-82
2021/08/06 04:58:28;;;;;;;1.50;1.00;;;18.30;98.20;;;;;;5024562;28;20509;-79
2021/08/06 05:00:55;;;;;;;1.50;0.90;;;18.30;98.20;;;;;;5002586;28;20970;-81
2021/08/06 05:03:23;;;;;;;1.50;1.00;;;18.30;98.20;;;;;;5026210;28;20457;-80
2021/08/06 05:05:50;;;;;;;1.50;0.90;;;18.40;98.20;;;;;;5006375;28;20463;-79
2021/08/06 05:08:17;;;;;;;1.50;0.97;;;18.40;98.20;;;;;;5024885;28;20544;-82
2021/08/06 05:10:43;;;;;;;1.50;0.90;;;18.40;98.20;;;;;;5013301;28;20471;-80
2021/08/06 05:13:10;;;;;;;1.50;0.90;;;18.40;98.20;;;;;;5017700;28;20587;-79
2021/08/06 05:15:37;;;;;;;1.50;1.00;;;18.40;98.20;;;;;;5012608;28;20464;-81
2021/08/06 05:18:04;;;;;;;1.50;0.90;;;18.40;98.20;;;;;;5019972;28;20862;-76
2021/08/06 05:20:32;;;;;;;1.80;1.23;;;18.40;98.20;;;;;;5013246;28;20464;-78
2021/08/06 05:22:59;;;;;;;1.50;0.90;;;18.50;98.20;;;;;;5020527;28;20537;-79
2021/08/06 05:25:26;;;;;;;1.50;0.90;;;18.50;98.20;;;;;;5011806;28;20468;-79
2021/08/06 05:27:53;;;;;;;1.50;0.90;;;18.50;98.20;;;;;;5022130;28;20546;-80
2021/08/06 05:30:22;;;;;;;1.50;0.90;;;18.50;98.20;;;;;;5013958;28;20467;-80
2021/08/06 05:32:49;;;;;;;1.50;0.90;;;18.50;98.20;;;;;;5020429;28;20479;-83
2021/08/06 05:35:16;;;;;;;1.50;0.90;;;18.50;98.20;;;;;;5013737;28;20463;-80
2021/08/06 05:37:44;;;;;;;1.50;0.97;;;18.50;98.20;;;;;;5017293;28;20570;-80
2021/08/06 05:40:11;;;;;;;1.50;0.90;;;18.50;98.20;;;;;;5011695;28;20514;-78
2021/08/06 05:42:38;;;;;;;1.50;0.90;;;18.50;98.20;;;;;;5014031;28;21185;-80
2021/08/06 05:45:06;;;;;;;1.50;0.90;;;18.50;98.20;;;;;;5009868;28;20479;-80
2021/08/06 05:47:42;;;;;;;1.50;0.90;;;18.50;98.20;;;;;;5018222;28;20977;-80
2021/08/06 05:50:10;;;;;;;1.50;1.00;;;18.50;98.20;;;;;;5014377;28;20456;-78
2021/08/06 05:52:37;;;;;;;1.50;0.90;;;18.40;98.20;;;;;;5016993;28;20475;-78
2021/08/06 05:55:06;;;;;;;1.50;0.90;;;18.40;98.20;;;;;;5016753;28;20459;-78
2021/08/06 05:57:33;;;;;;;1.50;0.90;;;18.30;98.20;;;;;;5013777;28;20485;-81
2021/08/06 05:59:59;;;;;;;1.50;0.90;;;18.30;98.20;;;;;;5014603;28;20467;-80
2021/08/06 06:02:26;;;;;;;1.50;0.90;;;18.30;98.20;;;;;;5015508;28;20513;-79
2021/08/06 06:04:53;;;;;;;1.50;0.90;;;18.30;98.20;;;;;;5008138;28;21001;-79
2021/08/06 06:07:19;;;;;;;1.50;0.90;;;18.30;98.20;;;;;;5013954;28;20494;-79
2021/08/06 06:09:46;;;;;;;1.50;0.90;;;18.30;98.20;;;;;;5014940;28;20492;-78
2021/08/06 06:12:14;;;;;;;1.50;0.90;;;18.40;98.20;;;;;;5016893;28;21036;-77
2021/08/06 06:14:41;;;;;;;1.50;1.00;;;18.40;98.20;;;;;;5013836;28;20465;-80
2021/08/06 06:17:11;;;;;;;1.50;0.90;;;18.40;98.20;;;;;;5009367;28;20925;-82
2021/08/06 06:19:38;;;;;;;1.50;1.00;;;18.50;98.20;;;;;;5010227;28;20468;-81
2021/08/06 06:22:05;;;;;;;1.50;0.90;;;18.50;98.20;;;;;;5006652;28;20484;-80
2021/08/06 06:24:34;;;;;;;1.50;1.00;;;18.60;98.20;;;;;;5022308;28;20464;-80
2021/08/06 06:27:00;;;;;;;1.50;0.90;;;18.70;98.20;;;;;;5005210;28;20497;-79
2021/08/06 06:29:29;;;;;;;1.50;0.90;;;18.70;98.20;;;;;;5017390;28;20499;-77
2021/08/06 06:31:55;;;;;;;1.50;0.90;;;18.80;98.20;;;;;;5000208;28;20543;-77
2021/08/06 06:34:22;;;;;;;1.50;0.90;;;18.70;98.20;;;;;;5013334;28;20467;-76
2021/08/06 06:36:49;;;;;;;1.50;0.90;;;18.80;98.20;;;;;;5001682;28;20491;-78
2021/08/06 06:39:15;;;;;;;1.50;0.90;;;18.80;98.20;;;;;;5014659;28;20464;-80
2021/08/06 06:41:42;;;;;;;1.50;0.90;;;18.80;98.20;;;;;;5007356;28;20871;-80
2021/08/06 06:44:09;;;;;;;1.50;0.90;;;18.80;98.20;;;;;;5016622;28;20460;-80
2021/08/06 06:46:37;;;;;;;1.50;0.90;;;18.90;98.20;;;;;;5000992;28;20490;-78
2021/08/06 06:49:04;;;;;;;1.50;0.90;;;18.90;98.20;;;;;;5013071;28;20560;-78
2021/08/06 06:51:30;;;;;;;1.50;0.90;;;19.00;98.20;;;;;;5008396;28;20505;-76
2021/08/06 06:53:57;;;;;;;1.50;0.90;;;19.10;98.20;;;;;;5022323;28;20459;-79
2021/08/06 06:56:24;;;;;;;1.50;0.93;;;19.20;98.20;;;;;;5011029;28;20480;-81
2021/08/06 06:58:52;;;;;;;1.50;0.90;;;19.30;98.20;;;;;;5026000;28;20462;-78
2021/08/06 07:01:19;;;;;;;1.50;0.90;;;19.30;98.20;;;;;;5006478;28;20549;-78
2021/08/06 07:03:47;;;;;;;1.50;0.90;;;19.30;98.20;;;;;;5029716;28;20470;-80
2021/08/06 07:06:18;;;;;;;1.50;0.90;;;19.30;98.20;;;;;;5007292;28;20817;-80
2021/08/06 07:08:45;;;;;;;1.50;0.90;;;19.30;98.20;;;;;;5029468;28;20554;-77
2021/08/06 07:11:12;;;;;;;1.50;1.00;;;19.30;98.20;;;;;;4998486;28;20483;-80
2021/08/06 07:13:39;;;;;;;1.53;1.00;;;19.40;98.20;;;;;;5020700;28;20469;-80
2021/08/06 07:16:06;;;;;;;1.50;1.00;;;19.40;98.20;;;;;;5004860;28;20514;-81
2021/08/06 07:18:34;;;;;;;1.53;1.00;;;19.50;98.20;;;;;;5021875;28;20496;-81
2021/08/06 07:21:02;;;;;;;1.53;0.90;;;19.50;98.20;;;;;;5002993;28;20464;-81
2021/08/06 07:23:28;;;;;;;1.50;0.90;;;19.50;98.20;;;;;;5023108;28;20476;-80
2021/08/06 07:25:55;;;;;;;1.50;0.90;;;19.60;98.20;;;;;;5001515;28;20499;-81
2021/08/06 07:28:22;;;;;;;1.57;1.00;;;19.50;98.20;;;;;;5024483;28;20487;-78
2021/08/06 07:30:49;;;;;;;1.50;0.90;;;19.40;98.20;;;;;;4998688;28;20467;-79
2021/08/06 07:33:16;;;;;;;1.50;0.90;;;19.40;98.20;;;;;;5023332;28;20472;-80
2021/08/06 07:35:42;;;;;;;1.50;0.90;;;19.40;98.20;;;;;;5012252;28;20475;-80
2021/08/06 07:38:10;;;;;;;1.50;0.90;;;19.50;98.20;;;;;;5013711;28;20507;-80
2021/08/06 07:40:37;;;;;;;1.50;0.90;;;19.70;98.20;;;;;;5004890;28;20472;-79
2021/08/06 07:43:04;;;;;;;1.50;0.90;;;19.80;98.20;;;;;;5014886;28;20490;-78
2021/08/06 07:45:31;;;;;;;1.50;1.00;;;19.90;98.20;;;;;;5009477;28;20468;-79
2021/08/06 07:47:58;;;;;;;1.57;1.00;;;20.00;98.20;;;;;;5016889;28;20479;-80
2021/08/06 07:50:24;;;;;;;1.50;0.90;;;20.20;98.20;;;;;;5009235;28;20475;-78
2021/08/06 07:52:51;;;;;;;1.50;0.90;;;20.40;98.20;;;;;;5010226;28;20492;-80
2021/08/06 07:55:19;;;;;;;1.53;0.90;;;20.50;98.20;;;;;;5009171;28;20464;-80
2021/08/06 07:57:46;;;;;;;1.53;0.90;;;20.60;98.20;;;;;;5006217;28;20518;-80
2021/08/06 08:00:14;;;;;;;1.53;0.90;;;20.80;98.20;;;;;;5010718;28;20766;-79
2021/08/06 08:02:41;;;;;;;1.50;0.90;;;20.90;98.20;;;;;;5013207;28;21099;-78
2021/08/06 08:05:08;;;;;;;1.50;0.90;;;21.00;98.20;;;;;;5009639;28;21165;-80
2021/08/06 08:07:35;;;;;;;1.70;1.47;;;21.20;98.20;;;;;;5011803;28;21010;-80
2021/08/06 08:10:02;;;;;;;1.57;0.90;;;21.30;98.20;;;;;;5002778;28;20471;-80
2021/08/06 08:12:30;;;;;;;1.50;0.90;;;21.50;98.20;;;;;;5012142;28;21341;-81
2021/08/06 08:14:57;;;;;;;1.57;0.90;;;21.60;98.20;;;;;;5010897;28;20707;-81
2021/08/06 08:17:24;;;;;;;1.50;0.90;;;21.70;98.20;;;;;;5011130;28;21081;-81
2021/08/06 08:19:50;;;;;;;1.53;0.90;;;21.90;98.20;;;;;;5013288;28;20540;-78
2021/08/06 08:22:17;;;;;;;1.57;0.90;;;22.00;98.20;;;;;;5010606;28;20483;-79
2021/08/06 08:24:44;;;;;;;1.50;0.90;;;21.90;98.20;;;;;;5013070;28;20503;-83
2021/08/06 08:27:12;;;;;;;1.50;0.90;;;21.60;98.20;;;;;;5011207;28;20531;-78
2021/08/06 08:29:40;;;;;;;1.50;0.90;;;21.20;98.20;;;;;;5007035;28;20500;-75
2021/08/06 08:32:08;;;;;;;1.53;1.00;;;20.90;98.20;;;;;;5004608;28;20489;-76
2021/08/06 08:34:34;;;;;;;1.57;0.90;;;20.70;98.20;;;;;;5013324;28;20474;-78
2021/08/06 08:37:01;;;;;;;1.50;0.90;;;20.50;98.20;;;;;;5010370;28;20491;-78
2021/08/06 08:39:28;;;;;;;1.53;0.90;;;20.40;98.20;;;;;;5011722;28;20460;-81
2021/08/06 08:41:55;;;;;;;1.57;0.90;;;20.20;98.20;;;;;;5007278;28;20493;-79
2021/08/06 08:44:22;;;;;;;1.50;0.90;;;20.10;98.20;;;;;;5012868;28;20533;-79
2021/08/06 08:46:51;;;;;;;1.50;1.00;;;20.10;98.20;;;;;;5009377;28;20486;-78
2021/08/06 08:49:22;;;;;;;1.50;0.90;;;20.00;98.20;;;;;;5022209;28;20855;-78
2021/08/06 08:51:50;;;;;;;1.50;0.90;;;20.00;98.20;;;;;;5007854;28;20492;-78
2021/08/06 08:54:17;;;;;;;1.50;0.90;;;20.00;98.20;;;;;;5015133;28;20468;-76
2021/08/06 08:56:44;;;;;;;1.50;0.90;;;19.90;98.20;;;;;;5007140;28;20597;-78
2021/08/06 08:59:11;;;;;;;1.50;0.90;;;19.90;98.20;;;;;;5018495;28;20483;-77
2021/08/06 09:01:38;;;;;;;1.50;1.00;;;20.00;98.20;;;;;;5003909;28;21206;-78
2021/08/06 09:04:19;;;;;;;1.50;0.90;;;20.00;98.20;;;;;;5014548;28;20472;-78
2021/08/06 09:06:47;;;;;;;1.50;0.90;;;19.90;98.20;;;;;;5008686;28;20574;-79
2021/08/06 09:09:16;;;;;;;1.50;0.90;;;19.90;98.20;;;;;;5017559;28;20914;-80
2021/08/06 09:11:43;;;;;;;1.50;0.90;;;19.90;98.20;;;;;;5007637;28;20569;-79
2021/08/06 09:14:26;;;;;;;1.50;0.90;;;20.00;98.20;;;;;;5014789;28;21083;-79
2021/08/06 09:17:02;;;;;;;1.50;0.90;;;20.00;98.20;;;;;;5005349;28;20490;-78
2021/08/06 09:19:33;;;;;;;1.50;1.00;;;20.10;98.20;;;;;;5008572;22;20510;-77
2021/08/06 09:22:17;;;;;;;1.50;0.90;;;20.20;98.20;;;;;;4982197;28;21179;-76
2021/08/06 09:25:07;;;;;;;1.50;0.90;;;20.20;98.20;;;;;;4980228;28;20552;-75
2021/08/06 09:27:35;;;;;;;1.50;0.90;;;20.40;98.20;;;;;;4984319;28;20488;-77
2021/08/06 09:30:05;;;;;;;1.50;1.00;;;20.40;98.20;;;;;;4972289;28;20493;-77
2021/08/06 09:32:49;;;;;;;1.50;0.90;;;20.50;98.20;;;;;;4979133;28;20484;-77
2021/08/06 09:35:19;;;;;;;1.50;0.90;;;20.60;98.20;;;;;;4969922;28;20520;-78
2021/08/06 09:37:46;;;;;;;1.50;0.90;;;20.80;98.20;;;;;;4978213;28;20486;-79
2021/08/06 09:40:15;;;;;;;1.50;0.90;;;20.90;98.20;;;;;;4967805;28;20458;-78
2021/08/06 09:42:49;;;;;;;1.50;0.90;;;21.00;98.20;;;;;;4974841;28;20491;-76
2021/08/06 09:45:17;;;;;;;1.50;0.90;;;21.30;98.20;;;;;;4971976;28;20473;-79
2021/08/06 09:47:54;;;;;;;1.50;0.90;;;21.50;98.20;;;;;;4970821;28;20847;-78
2021/08/06 09:50:25;;;;;;;1.50;0.90;;;21.80;98.20;;;;;;4976717;28;21011;-79
2021/08/06 09:52:53;;;;;;;1.50;0.90;;;22.00;98.20;;;;;;4966687;28;20871;-79
2021/08/06 09:55:24;;;;;;;1.50;0.90;;;22.20;98.20;;;;;;4975343;28;20470;-79
2021/08/06 09:57:52;;;;;;;1.53;0.90;;;22.30;98.20;;;;;;4976293;28;20773;-80
2021/08/06 10:00:20;;;;;;;1.50;0.90;;;22.50;98.20;;;;;;4970471;28;20462;-77
2021/08/06 10:02:47;;;;;;;1.50;0.90;;;22.80;98.20;;;;;;4974771;28;20484;-78
2021/08/06 10:05:16;;;;;;;1.50;0.90;;;23.00;98.20;;;;;;4975432;28;20470;-77
2021/08/06 10:07:46;;;;;;;1.53;0.90;;;23.20;98.20;;;;;;4974304;28;20492;-77
2021/08/06 10:10:14;;;;;;;1.53;0.90;;;23.30;97.10;;;;;;4979622;28;20490;-80
2021/08/06 10:12:41;;;;;;;1.50;0.90;;;23.30;98.20;;;;;;4975187;28;20522;-79
2021/08/06 10:15:09;;;;;;;1.50;0.90;;;23.50;97.20;;;;;;4978009;28;20485;-78
2021/08/06 10:17:37;;;;;;;1.53;0.90;;;23.70;97.40;;;;;;4967956;28;20491;-77
2021/08/06 10:20:05;;;;;;;1.50;0.90;;;23.90;95.90;;;;;;4989262;28;20491;-79
2021/08/06 10:22:32;;;;;;;1.50;0.90;;;24.00;95.00;;;;;;5008479;28;20482;-78
2021/08/06 10:25:03;;;;;;;1.50;0.90;;;24.10;94.20;;;;;;5001514;28;20469;-78
2021/08/06 10:27:31;;;;;;;1.50;0.90;;;24.20;94.60;;;;;;5004011;28;20950;-77
2021/08/06 10:30:01;;;;;;;1.57;0.90;;;24.40;95.20;;;;;;4997209;28;20503;-80
2021/08/06 10:32:29;;;;;;;1.57;0.90;;;24.60;92.80;;;;;;5010205;28;20536;-78
2021/08/06 10:35:12;;;;;;;1.50;0.87;;;24.70;92.50;;;;;;5003966;28;20503;-77
2021/08/06 10:38:06;;;;;;;1.57;0.90;;;24.80;92.20;;;;;;5014014;28;20469;-77
2021/08/06 10:41:13;;;;;;;1.50;0.80;;;25.00;90.60;;;;;;4988986;28;20498;-76
2021/08/06 10:44:02;;;;;;;1.60;1.00;;;25.30;89.80;;;;;;4978242;28;20941;-77
2021/08/06 10:46:48;;;;;;;1.50;0.90;;;25.40;89.00;;;;;;4985447;28;20475;-77
2021/08/06 10:49:14;;;;;;;1.50;0.90;;;25.50;89.50;;;;;;5009002;28;20877;-76
2021/08/06 10:51:41;;;;;;;1.50;0.90;;;25.50;89.40;;;;;;4989499;28;20483;-77
2021/08/06 10:54:26;;;;;;;1.53;0.90;;;25.20;89.30;;;;;;5010705;28;20732;-76
2021/08/06 10:57:24;;;;;;;1.50;0.90;;;24.90;88.40;;;;;;4999959;28;20510;-75
2021/08/06 10:59:51;;;;;;;1.50;0.90;;;24.70;88.20;;;;;;4995399;28;20488;-77
2021/08/06 11:02:41;;;;;;;1.50;0.90;;;24.60;87.20;;;;;;5003602;28;20588;-79
2021/08/06 11:05:45;;;;;;;2.57;1.30;;;24.80;86.70;;;;;;5002899;23;20830;-83
2021/08/06 11:08:55;;;;;;;1.50;0.90;;;24.90;86.40;;;;;;4963489;28;20481;-82
2021/08/06 11:11:45;;;;;;;1.50;0.90;;;24.80;85.80;;;;;;4985609;28;21200;-82
2021/08/06 11:14:15;;;;;;;1.50;0.90;;;24.50;86.90;;;;;;4994480;28;20477;-80
2021/08/06 11:17:03;;;;;;;1.53;0.90;;;24.20;87.60;;;;;;4986872;28;20488;-80
2021/08/06 11:19:32;;;;;;;1.53;0.90;;;23.90;88.10;;;;;;4997005;28;20457;-81
2021/08/06 11:22:01;;;;;;;1.57;0.90;;;23.80;88.90;;;;;;4988003;28;20484;-82
2021/08/06 11:24:35;;;;;;;1.53;0.90;;;23.70;89.10;;;;;;4997164;28;20673;-85
2021/08/06 11:27:03;;;;;;;1.50;0.90;;;23.70;90.10;;;;;;4985357;28;20535;-81
2021/08/06 11:29:31;;;;;;;1.57;0.90;;;23.90;90.10;;;;;;4995768;28;20574;-86
2021/08/06 11:32:03;;;;;;;1.50;0.90;;;23.90;90.10;;;;;;4987987;28;20484;-80
2021/08/06 11:34:30;;;;;;;1.50;0.90;;;24.10;88.60;;;;;;4992832;28;20465;-82
2021/08/06 11:36:58;;;;;;;1.50;0.90;;;24.10;89.80;;;;;;4982443;28;20491;-84
2021/08/06 11:39:25;;;;;;;1.50;0.90;;;24.10;89.70;;;;;;4989537;28;20457;-80
2021/08/06 11:41:54;;;;;;;1.50;0.90;;;24.00;89.80;;;;;;4985585;28;20484;-78
2021/08/06 11:44:21;;;;;;;1.50;0.90;;;23.90;89.20;;;;;;4998710;28;20469;-81
2021/08/06 11:46:51;;;;;;;1.50;0.90;;;23.70;88.90;;;;;;4985785;28;20496;-80
2021/08/06 11:49:19;;;;;;;1.50;0.90;;;23.50;89.10;;;;;;4998166;28;20496;-83
2021/08/06 11:51:48;;;;;;;1.50;0.90;;;23.50;89.10;;;;;;4991201;28;20512;-83
2021/08/06 11:54:14;;;;;;;1.50;0.90;;;23.50;89.60;;;;;;4995281;28;20461;-82
2021/08/06 11:56:41;;;;;;;1.50;0.90;;;23.50;88.20;;;;;;4984290;28;20972;-81
2021/08/06 11:59:09;;;;;;;1.50;0.90;;;23.50;88.30;;;;;;4997908;28;20461;-82
2021/08/06 12:01:36;;;;;;;1.50;0.90;;;23.50;88.30;;;;;;5002049;28;20486;-84
2021/08/06 12:04:04;;;;;;;1.50;0.90;;;23.50;86.80;;;;;;5001829;28;20484;-83
2021/08/06 12:06:32;;;;;;;1.50;0.90;;;23.40;86.80;;;;;;4981419;28;20515;-82
2021/08/06 12:09:07;;;;;;;1.50;0.90;;;23.60;87.20;;;;;;4999266;28;20564;-84
2021/08/06 12:11:44;;;;;;;1.50;0.90;;;24.00;87.00;;;;;;4978921;28;20488;-83
2021/08/06 12:14:11;;;;;;;1.50;0.83;;;24.50;85.60;;;;;;4988842;28;20467;-83
2021/08/06 12:16:40;;;;;;;1.57;0.90;;;25.00;85.30;;;;;;4980619;28;20481;-82
2021/08/06 12:19:10;;;;;;;1.57;1.03;;;25.30;83.00;;;;;;4996461;28;20563;-83
2021/08/06 12:21:38;;;;;;;1.50;0.83;;;25.40;82.30;;;;;;4984155;28;21008;-86
2021/08/06 12:24:09;;;;;;;1.50;0.87;;;25.40;82.80;;;;;;4995080;28;20532;-83
2021/08/06 12:26:43;;;;;;;1.50;0.90;;;25.40;82.20;;;;;;4980609;28;20488;-79
2021/08/06 12:29:12;;;;;;;1.50;0.80;;;25.30;82.60;;;;;;4995718;28;20491;-81
2021/08/06 12:31:53;;;;;;;1.50;0.90;;;25.30;83.50;;;;;;4974263;28;20945;-83
2021/08/06 12:34:24;;;;;;;1.50;0.87;;;25.30;83.30;;;;;;4987850;28;20465;-82
2021/08/06 12:36:57;;;;;;;1.50;0.90;;;25.40;83.20;;;;;;4981248;28;20519;-81
2021/08/06 12:39:24;;;;;;;1.50;0.90;;;25.60;84.20;;;;;;4992812;28;20994;-82
2021/08/06 12:41:52;;;;;;;1.50;0.90;;;25.70;82.90;;;;;;4983888;28;20498;-83
2021/08/06 12:44:29;;;;;;;1.50;0.90;;;25.70;82.60;;;;;;4989375;28;20472;-80
2021/08/06 12:46:59;;;;;;;1.50;0.90;;;25.60;82.90;;;;;;4982538;28;20533;-81
2021/08/06 12:49:29;;;;;;;1.50;0.80;;;25.40;83.10;;;;;;4990433;28;20567;-82
2021/08/06 12:52:02;;;;;;;1.50;0.90;;;25.10;83.70;;;;;;4984936;28;20491;-83
2021/08/06 12:54:42;;;;;;;1.50;0.90;;;24.90;84.80;;;;;;4993812;28;20902;-84
2021/08/06 12:57:10;;;;;;;1.50;0.90;;;24.80;84.70;;;;;;4991373;28;20777;-84
2021/08/06 12:59:39;;;;;;;1.50;0.90;;;24.80;85.30;;;;;;4994876;28;20467;-82